createdAt,value
2022-09-16T00:11:34.413Z,0.80
2022-09-16T00:19:08.108Z,0.80
2022-09-16T00:26:43.491Z,0.77
2022-09-16T00:34:17.235Z,0.80
2022-09-16T00:41:52.297Z,0.75
2022-09-16T00:57:04.841Z,0.97
2022-09-16T01:04:44.664Z,0.90
2022-09-16T01:12:19.804Z,1.00
2022-09-16T01:20:11.516Z,0.80
2022-09-16T01:28:13.126Z,1.00
2022-09-16T01:36:04.899Z,0.73
2022-09-16T01:43:48.466Z,0.95
2022-09-16T01:51:29.064Z,1.00
2022-09-16T01:59:09.467Z,0.95
2022-09-16T02:06:47.447Z,1.20
2022-09-16T02:14:25.210Z,1.23
2022-09-16T02:22:04.973Z,1.27
2022-09-16T02:29:42.897Z,1.25
2022-09-16T02:37:23.253Z,1.40
2022-09-16T02:44:58.250Z,1.17
2022-09-16T03:00:11.960Z,1.30
2022-09-16T03:07:47.351Z,1.25
2022-09-16T03:15:41.979Z,1.27
2022-09-16T03:23:24.412Z,1.25
2022-09-16T03:31:04.828Z,1.67
2022-09-16T03:38:42.205Z,1.05
2022-09-16T03:46:15.857Z,1.73
2022-09-16T03:53:50.908Z,1.33
2022-09-16T04:09:01.130Z,1.63
2022-09-16T04:16:35.240Z,2.20
2022-09-16T04:24:13.124Z,2.30
2022-09-16T04:31:47.330Z,1.27
2022-09-16T04:39:22.706Z,1.77
2022-09-16T04:46:56.415Z,1.48
2022-09-16T04:54:31.478Z,1.55
2022-09-16T05:02:06.445Z,1.38
2022-09-16T05:09:41.538Z,1.15
2022-09-16T05:17:33.176Z,1.13
2022-09-16T05:25:10.837Z,1.05
2022-09-16T05:32:44.502Z,1.25
2022-09-16T05:40:22.922Z,1.58
2022-09-16T05:47:56.706Z,1.45
2022-09-16T05:55:31.948Z,1.50
2022-09-16T06:03:05.684Z,1.20
2022-09-16T06:10:41.554Z,1.48
2022-09-16T06:18:16.322Z,1.45
2022-09-16T06:26:00.472Z,2.90
2022-09-16T06:33:34.693Z,2.28
2022-09-16T06:41:11.324Z,1.63
2022-09-16T06:48:46.572Z,1.88
2022-09-16T06:56:22.608Z,1.42
2022-09-16T07:03:58.301Z,1.73
2022-09-16T07:11:34.038Z,2.17
2022-09-16T07:19:08.530Z,2.05
2022-09-16T07:26:44.747Z,1.70
2022-09-16T07:34:18.668Z,1.20
2022-09-16T07:41:53.688Z,1.50
2022-09-16T07:57:02.695Z,1.58
2022-09-16T08:12:12.779Z,1.77
2022-09-16T08:19:46.471Z,1.65
2022-09-16T08:27:21.495Z,2.10
2022-09-16T08:42:57.055Z,1.35
2022-09-16T08:50:36.911Z,1.73
2022-09-16T08:58:17.071Z,1.02
2022-09-16T09:05:53.721Z,1.02
2022-09-16T09:14:08.460Z,1.15
2022-09-16T09:21:53.721Z,1.50
2022-09-16T09:29:45.868Z,1.00
2022-09-16T09:37:37.945Z,0.85
2022-09-16T09:45:20.470Z,1.10
2022-09-16T09:53:01.104Z,1.25
2022-09-16T10:00:36.332Z,1.15
2022-09-16T10:08:17.180Z,0.73
2022-09-16T10:15:55.614Z,0.70
2022-09-16T10:23:30.543Z,1.58
2022-09-16T10:31:08.898Z,0.65
2022-09-16T10:38:45.557Z,0.88
2022-09-16T10:46:21.485Z,0.70
2022-09-16T10:53:57.531Z,0.75
2022-09-16T11:01:46.271Z,0.47
2022-09-16T11:09:30.799Z,0.70
2022-09-16T11:17:19.568Z,0.70
2022-09-16T11:25:09.784Z,0.82
2022-09-16T11:33:07.004Z,0.60
2022-09-16T11:40:53.397Z,0.60
2022-09-16T11:48:42.738Z,0.70
2022-09-16T11:56:20.690Z,0.65
2022-09-16T12:04:01.705Z,0.88
2022-09-16T12:11:38.398Z,0.50
2022-09-16T12:22:47.419Z,0.70
2022-09-16T12:30:25.284Z,0.47
2022-09-16T12:38:00.991Z,0.73
2022-09-16T12:46:15.670Z,0.73
2022-09-16T12:54:11.256Z,0.73
2022-09-16T13:01:49.095Z,0.88
2022-09-16T13:09:26.627Z,0.40
2022-09-16T13:17:03.382Z,0.60
2022-09-16T13:24:42.019Z,0.40
2022-09-16T13:40:25.198Z,0.50
2022-09-16T13:47:59.187Z,0.40
2022-09-16T13:55:34.969Z,1.35
2022-09-16T14:03:31.377Z,0.65
2022-09-16T14:11:12.414Z,0.50
2022-09-16T14:18:54.458Z,0.38
2022-09-16T14:26:29.544Z,0.50
2022-09-16T14:41:44.479Z,0.50
2022-09-16T14:49:19.828Z,0.70
2022-09-16T14:57:01.294Z,0.68
2022-09-16T15:04:40.270Z,0.70
2022-09-16T15:12:29.784Z,0.55
2022-09-16T15:20:03.697Z,0.68
2022-09-16T15:27:38.879Z,0.90
2022-09-16T15:35:23.234Z,0.60
2022-09-16T15:43:26.448Z,0.77
2022-09-16T15:51:05.141Z,0.47
2022-09-16T15:58:45.439Z,0.50
2022-09-16T16:06:19.366Z,0.50
2022-09-16T16:13:56.548Z,0.57
2022-09-16T16:21:33.458Z,0.90
2022-09-16T16:29:09.079Z,0.63
2022-09-16T16:36:42.925Z,0.95
2022-09-16T16:44:18.025Z,0.70
2022-09-16T16:59:28.175Z,0.65
2022-09-16T17:07:24.677Z,1.63
2022-09-16T17:14:57.178Z,0.80
2022-09-16T17:30:08.144Z,0.47
2022-09-16T17:37:41.877Z,0.60
2022-09-16T17:45:17.171Z,0.50
2022-09-16T17:52:51.048Z,0.50
2022-09-16T18:00:26.190Z,0.47
2022-09-16T18:15:35.064Z,0.88
2022-09-16T18:30:44.663Z,0.60
2022-09-16T18:38:18.511Z,0.90
2022-09-16T18:45:54.053Z,0.82
2022-09-16T18:53:27.936Z,0.80
2022-09-16T19:01:09.693Z,1.00
2022-09-16T19:08:44.193Z,0.93
2022-09-16T19:16:20.208Z,0.83
2022-09-16T19:23:56.801Z,1.13
2022-09-16T19:31:32.943Z,1.00
2022-09-16T19:39:07.812Z,0.85
2022-09-16T19:46:44.872Z,0.57
2022-09-16T19:54:19.351Z,0.80
2022-09-16T20:01:54.455Z,0.57
2022-09-16T20:17:03.416Z,1.10
2022-09-16T20:24:37.429Z,1.00
2022-09-16T20:32:12.708Z,1.00
2022-09-16T20:39:46.398Z,0.88
2022-09-16T20:47:21.784Z,0.90
2022-09-16T20:54:55.524Z,0.88
2022-09-16T21:02:30.702Z,0.75
2022-09-16T21:10:05.125Z,0.98
2022-09-16T21:17:40.179Z,1.03
2022-09-16T21:32:48.855Z,1.23
2022-09-16T21:40:24.121Z,1.88
2022-09-16T21:47:59.186Z,0.75
2022-09-16T22:03:08.041Z,0.90
2022-09-16T22:10:41.727Z,1.35
2022-09-16T22:18:17.138Z,0.70
2022-09-16T22:25:50.854Z,0.95
2022-09-16T22:33:26.153Z,0.82
2022-09-16T22:41:01.333Z,0.95
2022-09-16T22:48:37.154Z,0.70
2022-09-16T22:56:13.376Z,0.70
2022-09-16T23:03:52.170Z,1.00
2022-09-16T23:11:28.572Z,1.17
2022-09-16T23:19:06.226Z,1.30
2022-09-16T23:26:40.246Z,1.10
2022-09-16T23:34:19.055Z,2.00
2022-09-16T23:41:52.791Z,1.00
2022-09-16T23:49:27.857Z,1.35
